sensor_id;sensor_type;location;lat;lon;timestamp;temperature;humidity
1383;DHT22;685;47.196;11.880;2022-12-29T00:01:29;-0.10;99.90
1383;DHT22;685;47.196;11.880;2022-12-29T00:03:56;0.20;99.90
1383;DHT22;685;47.196;11.880;2022-12-29T00:06:23;0.30;99.90
1383;DHT22;685;47.196;11.880;2022-12-29T00:08:51;0.20;99.90
1383;DHT22;685;47.196;11.880;2022-12-29T00:11:19;0.10;99.90
1383;DHT22;685;47.196;11.880;2022-12-29T00:13:46;0.00;99.90
1383;DHT22;685;47.196;11.880;2022-12-29T00:16:33;0.20;99.90
1383;DHT22;685;47.196;11.880;2022-12-29T00:19:01;0.10;99.90
1383;DHT22;685;47.196;11.880;2022-12-29T00:21:28;0.00;99.90
1383;DHT22;685;47.196;11.880;2022-12-29T00:24:14;-0.10;99.90
1383;DHT22;685;47.196;11.880;2022-12-29T00:27:10;0.30;99.90
1383;DHT22;685;47.196;11.880;2022-12-29T00:29:54;-0.10;99.90
1383;DHT22;685;47.196;11.880;2022-12-29T00:32:40;-0.30;99.90
1383;DHT22;685;47.196;11.880;2022-12-29T00:35:27;-0.40;99.90
1383;DHT22;685;47.196;11.880;2022-12-29T00:37:55;-0.30;99.90
1383;DHT22;685;47.196;11.880;2022-12-29T00:40:41;0.00;99.90
1383;DHT22;685;47.196;11.880;2022-12-29T00:43:25;0.20;99.90
1383;DHT22;685;47.196;11.880;2022-12-29T00:46:09;0.40;99.90
1383;DHT22;685;47.196;11.880;2022-12-29T00:48:37;0.30;99.90
1383;DHT22;685;47.196;11.880;2022-12-29T00:51:22;0.10;99.90
1383;DHT22;685;47.196;11.880;2022-12-29T00:53:49;0.00;99.90
1383;DHT22;685;47.196;11.880;2022-12-29T00:56:16;0.10;99.90
1383;DHT22;685;47.196;11.880;2022-12-29T00:58:43;0.40;99.90
1383;DHT22;685;47.196;11.880;2022-12-29T01:01:10;0.40;99.90
1383;DHT22;685;47.196;11.880;2022-12-29T01:03:38;0.30;99.90
1383;DHT22;685;47.196;11.880;2022-12-29T01:06:06;0.20;99.90
1383;DHT22;685;47.196;11.880;2022-12-29T01:08:34;0.40;99.90
1383;DHT22;685;47.196;11.880;2022-12-29T01:11:03;0.50;99.90
1383;DHT22;685;47.196;11.880;2022-12-29T01:13:29;0.70;99.90
1383;DHT22;685;47.196;11.880;2022-12-29T01:15:56;0.50;99.90
1383;DHT22;685;47.196;11.880;2022-12-29T01:18:25;0.20;99.90
1383;DHT22;685;47.196;11.880;2022-12-29T01:20:58;0.30;99.90
1383;DHT22;685;47.196;11.880;2022-12-29T01:23:25;0.20;99.90
1383;DHT22;685;47.196;11.880;2022-12-29T01:25:52;0.20;99.90
1383;DHT22;685;47.196;11.880;2022-12-29T01:28:19;0.30;99.90
1383;DHT22;685;47.196;11.880;2022-12-29T01:30:46;0.30;99.90
1383;DHT22;685;47.196;11.880;2022-12-29T01:33:13;0.60;99.90
1383;DHT22;685;47.196;11.880;2022-12-29T01:35:40;0.50;99.90
1383;DHT22;685;47.196;11.880;2022-12-29T01:38:08;0.40;99.90
1383;DHT22;685;47.196;11.880;2022-12-29T01:40:43;0.00;99.90
1383;DHT22;685;47.196;11.880;2022-12-29T01:43:13;-0.10;99.90
1383;DHT22;685;47.196;11.880;2022-12-29T01:45:44;0.00;99.90
1383;DHT22;685;47.196;11.880;2022-12-29T01:48:13;-0.20;99.90
1383;DHT22;685;47.196;11.880;2022-12-29T01:50:42;-0.20;99.90
1383;DHT22;685;47.196;11.880;2022-12-29T01:53:16;-0.20;99.90
1383;DHT22;685;47.196;11.880;2022-12-29T01:55:46;0.00;99.90
1383;DHT22;685;47.196;11.880;2022-12-29T01:58:15;0.20;99.90
1383;DHT22;685;47.196;11.880;2022-12-29T02:00:44;0.10;99.90
1383;DHT22;685;47.196;11.880;2022-12-29T02:03:11;0.10;99.90
1383;DHT22;685;47.196;11.880;2022-12-29T02:05:43;0.00;99.90
1383;DHT22;685;47.196;11.880;2022-12-29T02:08:13;-0.50;99.90
1383;DHT22;685;47.196;11.880;2022-12-29T02:10:41;-0.40;99.90
1383;DHT22;685;47.196;11.880;2022-12-29T02:13:09;-0.10;99.90
1383;DHT22;685;47.196;11.880;2022-12-29T02:15:42;-0.10;99.90
1383;DHT22;685;47.196;11.880;2022-12-29T02:18:22;0.00;99.90
1383;DHT22;685;47.196;11.880;2022-12-29T02:27:13;0.20;99.90
1383;DHT22;685;47.196;11.880;2022-12-29T02:30:11;0.20;99.90
1383;DHT22;685;47.196;11.880;2022-12-29T02:32:49;0.00;99.90
1383;DHT22;685;47.196;11.880;2022-12-29T02:35:23;-0.60;99.90
1383;DHT22;685;47.196;11.880;2022-12-29T02:37:58;-0.50;99.90
1383;DHT22;685;47.196;11.880;2022-12-29T02:40:31;-0.20;99.90
1383;DHT22;685;47.196;11.880;2022-12-29T02:43:06;0.00;99.90
1383;DHT22;685;47.196;11.880;2022-12-29T02:45:41;-0.10;99.90
1383;DHT22;685;47.196;11.880;2022-12-29T02:48:18;-0.40;99.90
1383;DHT22;685;47.196;11.880;2022-12-29T02:50:50;-0.30;99.90
1383;DHT22;685;47.196;11.880;2022-12-29T02:53:19;0.10;99.90
1383;DHT22;685;47.196;11.880;2022-12-29T02:56:07;0.10;99.90
1383;DHT22;685;47.196;11.880;2022-12-29T02:58:33;-0.50;99.90
1383;DHT22;685;47.196;11.880;2022-12-29T03:01:29;-0.40;99.90
1383;DHT22;685;47.196;11.880;2022-12-29T03:04:18;-0.30;99.90
1383;DHT22;685;47.196;11.880;2022-12-29T03:06:52;-0.10;99.90
1383;DHT22;685;47.196;11.880;2022-12-29T03:09:31;-0.20;99.90
1383;DHT22;685;47.196;11.880;2022-12-29T03:12:18;-0.40;99.90
1383;DHT22;685;47.196;11.880;2022-12-29T03:14:57;-0.60;99.90
1383;DHT22;685;47.196;11.880;2022-12-29T03:17:51;-0.60;99.90
1383;DHT22;685;47.196;11.880;2022-12-29T03:20:27;-0.50;99.90
1383;DHT22;685;47.196;11.880;2022-12-29T03:22:59;-0.50;99.90
1383;DHT22;685;47.196;11.880;2022-12-29T03:25:30;-0.70;99.90
1383;DHT22;685;47.196;11.880;2022-12-29T03:28:02;-0.50;99.90
1383;DHT22;685;47.196;11.880;2022-12-29T03:30:31;-0.30;99.90
1383;DHT22;685;47.196;11.880;2022-12-29T03:33:01;-0.30;99.90
1383;DHT22;685;47.196;11.880;2022-12-29T03:35:34;-0.20;99.90
1383;DHT22;685;47.196;11.880;2022-12-29T03:38:08;-0.10;99.90
1383;DHT22;685;47.196;11.880;2022-12-29T03:40:38;-0.10;99.90
1383;DHT22;685;47.196;11.880;2022-12-29T03:43:07;-0.10;99.90
1383;DHT22;685;47.196;11.880;2022-12-29T03:45:36;-0.10;99.90
1383;DHT22;685;47.196;11.880;2022-12-29T03:48:03;-0.20;99.90
1383;DHT22;685;47.196;11.880;2022-12-29T03:50:32;-0.20;99.90
1383;DHT22;685;47.196;11.880;2022-12-29T03:52:59;-0.10;99.90
1383;DHT22;685;47.196;11.880;2022-12-29T03:55:26;-0.10;99.90
1383;DHT22;685;47.196;11.880;2022-12-29T03:57:53;-0.10;99.90
1383;DHT22;685;47.196;11.880;2022-12-29T04:00:20;-0.10;99.90
1383;DHT22;685;47.196;11.880;2022-12-29T04:02:47;-0.30;99.90
1383;DHT22;685;47.196;11.880;2022-12-29T04:05:14;-0.40;99.90
1383;DHT22;685;47.196;11.880;2022-12-29T04:07:42;-0.40;99.90
1383;DHT22;685;47.196;11.880;2022-12-29T04:10:09;-0.10;99.90
1383;DHT22;685;47.196;11.880;2022-12-29T04:12:36;-0.30;99.90
1383;DHT22;685;47.196;11.880;2022-12-29T04:15:04;-0.10;99.90
1383;DHT22;685;47.196;11.880;2022-12-29T04:17:31;-0.10;99.90
1383;DHT22;685;47.196;11.880;2022-12-29T04:19:58;0.00;99.90
1383;DHT22;685;47.196;11.880;2022-12-29T04:22:39;0.00;99.90
1383;DHT22;685;47.196;11.880;2022-12-29T04:25:08;0.40;99.90
1383;DHT22;685;47.196;11.880;2022-12-29T04:27:35;0.20;99.90
1383;DHT22;685;47.196;11.880;2022-12-29T04:30:03;0.20;99.90
1383;DHT22;685;47.196;11.880;2022-12-29T04:32:30;0.10;99.90
1383;DHT22;685;47.196;11.880;2022-12-29T04:34:56;0.00;99.90
1383;DHT22;685;47.196;11.880;2022-12-29T04:37:23;0.00;99.90
1383;DHT22;685;47.196;11.880;2022-12-29T04:39:50;-0.20;99.90
1383;DHT22;685;47.196;11.880;2022-12-29T04:42:18;-0.10;99.90
1383;DHT22;685;47.196;11.880;2022-12-29T04:44:45;0.10;99.90
1383;DHT22;685;47.196;11.880;2022-12-29T04:47:12;-0.10;99.90
1383;DHT22;685;47.196;11.880;2022-12-29T04:49:39;-0.20;99.90
1383;DHT22;685;47.196;11.880;2022-12-29T04:52:06;0.00;99.90
1383;DHT22;685;47.196;11.880;2022-12-29T04:54:34;0.10;99.90
1383;DHT22;685;47.196;11.880;2022-12-29T04:57:01;-0.20;99.90
1383;DHT22;685;47.196;11.880;2022-12-29T04:59:29;-0.20;99.90
1383;DHT22;685;47.196;11.880;2022-12-29T05:01:56;-0.20;99.90
1383;DHT22;685;47.196;11.880;2022-12-29T05:04:23;-0.20;99.90
1383;DHT22;685;47.196;11.880;2022-12-29T05:06:50;-0.20;99.90
1383;DHT22;685;47.196;11.880;2022-12-29T05:09:16;-0.10;99.90
1383;DHT22;685;47.196;11.880;2022-12-29T05:11:43;0.00;99.90
1383;DHT22;685;47.196;11.880;2022-12-29T05:14:10;-0.20;99.90
1383;DHT22;685;47.196;11.880;2022-12-29T05:16:38;-0.10;99.90
1383;DHT22;685;47.196;11.880;2022-12-29T05:19:05;0.00;99.90
1383;DHT22;685;47.196;11.880;2022-12-29T05:21:32;0.10;99.90
1383;DHT22;685;47.196;11.880;2022-12-29T05:23:59;0.20;99.90
1383;DHT22;685;47.196;11.880;2022-12-29T05:26:26;0.10;99.90
1383;DHT22;685;47.196;11.880;2022-12-29T05:28:53;0.00;99.90
1383;DHT22;685;47.196;11.880;2022-12-29T05:31:20;0.10;99.90
1383;DHT22;685;47.196;11.880;2022-12-29T05:33:48;0.10;99.90
1383;DHT22;685;47.196;11.880;2022-12-29T05:36:15;0.10;99.90
1383;DHT22;685;47.196;11.880;2022-12-29T05:38:42;0.10;99.90
1383;DHT22;685;47.196;11.880;2022-12-29T05:41:09;-0.10;99.90
1383;DHT22;685;47.196;11.880;2022-12-29T05:43:36;-0.20;99.90
1383;DHT22;685;47.196;11.880;2022-12-29T05:46:03;-0.10;99.90
1383;DHT22;685;47.196;11.880;2022-12-29T05:48:30;0.00;99.90
1383;DHT22;685;47.196;11.880;2022-12-29T05:50:58;0.10;99.90
1383;DHT22;685;47.196;11.880;2022-12-29T05:53:25;0.30;99.90
1383;DHT22;685;47.196;11.880;2022-12-29T05:55:52;0.10;99.90
1383;DHT22;685;47.196;11.880;2022-12-29T05:58:19;0.10;99.90
1383;DHT22;685;47.196;11.880;2022-12-29T06:00:46;0.20;99.90
1383;DHT22;685;47.196;11.880;2022-12-29T06:03:13;0.20;99.90
1383;DHT22;685;47.196;11.880;2022-12-29T06:05:40;0.30;99.90
1383;DHT22;685;47.196;11.880;2022-12-29T06:08:08;-0.10;99.90
1383;DHT22;685;47.196;11.880;2022-12-29T06:10:35;-0.20;99.90
1383;DHT22;685;47.196;11.880;2022-12-29T06:13:02;-0.10;99.90
1383;DHT22;685;47.196;11.880;2022-12-29T06:15:30;0.20;99.90
1383;DHT22;685;47.196;11.880;2022-12-29T06:17:58;0.40;99.90
1383;DHT22;685;47.196;11.880;2022-12-29T06:20:24;0.20;99.90
1383;DHT22;685;47.196;11.880;2022-12-29T06:22:51;0.20;99.90
1383;DHT22;685;47.196;11.880;2022-12-29T06:25:20;0.30;99.90
1383;DHT22;685;47.196;11.880;2022-12-29T06:27:47;0.30;99.90
1383;DHT22;685;47.196;11.880;2022-12-29T06:30:14;-0.40;99.90
1383;DHT22;685;47.196;11.880;2022-12-29T06:32:42;-0.80;99.90
1383;DHT22;685;47.196;11.880;2022-12-29T06:35:09;-0.90;99.90
1383;DHT22;685;47.196;11.880;2022-12-29T06:37:36;-0.60;99.90
1383;DHT22;685;47.196;11.880;2022-12-29T06:40:04;-0.30;99.90
1383;DHT22;685;47.196;11.880;2022-12-29T06:42:32;-0.20;99.90
1383;DHT22;685;47.196;11.880;2022-12-29T06:44:59;0.00;99.90
1383;DHT22;685;47.196;11.880;2022-12-29T06:47:26;0.00;99.90
1383;DHT22;685;47.196;11.880;2022-12-29T06:49:53;-0.60;99.90
1383;DHT22;685;47.196;11.880;2022-12-29T06:52:20;-0.70;99.90
1383;DHT22;685;47.196;11.880;2022-12-29T06:54:49;-0.70;99.90
1383;DHT22;685;47.196;11.880;2022-12-29T06:57:16;-0.80;99.90
1383;DHT22;685;47.196;11.880;2022-12-29T06:59:44;-0.50;99.90
1383;DHT22;685;47.196;11.880;2022-12-29T07:02:11;-0.40;99.90
1383;DHT22;685;47.196;11.880;2022-12-29T07:04:39;-0.60;99.90
1383;DHT22;685;47.196;11.880;2022-12-29T07:07:06;-0.50;99.90
1383;DHT22;685;47.196;11.880;2022-12-29T07:09:33;-0.30;99.90
1383;DHT22;685;47.196;11.880;2022-12-29T07:12:00;-0.20;99.90
1383;DHT22;685;47.196;11.880;2022-12-29T07:14:27;0.00;99.90
1383;DHT22;685;47.196;11.880;2022-12-29T07:16:55;0.00;99.90
1383;DHT22;685;47.196;11.880;2022-12-29T07:19:22;0.10;99.90
1383;DHT22;685;47.196;11.880;2022-12-29T07:21:49;-0.20;99.90
1383;DHT22;685;47.196;11.880;2022-12-29T07:24:16;-0.20;99.90
1383;DHT22;685;47.196;11.880;2022-12-29T07:26:43;-0.10;99.90
1383;DHT22;685;47.196;11.880;2022-12-29T07:29:10;-0.20;99.90
1383;DHT22;685;47.196;11.880;2022-12-29T07:31:36;-0.10;99.90
1383;DHT22;685;47.196;11.880;2022-12-29T07:34:05;0.10;99.90
1383;DHT22;685;47.196;11.880;2022-12-29T07:36:32;-0.30;99.90
1383;DHT22;685;47.196;11.880;2022-12-29T07:38:59;-0.50;99.90
1383;DHT22;685;47.196;11.880;2022-12-29T07:41:25;-0.20;99.90
1383;DHT22;685;47.196;11.880;2022-12-29T07:43:53;0.00;99.90
1383;DHT22;685;47.196;11.880;2022-12-29T07:46:19;-0.10;99.90
1383;DHT22;685;47.196;11.880;2022-12-29T07:48:46;0.00;99.90
1383;DHT22;685;47.196;11.880;2022-12-29T07:51:14;0.00;99.90
1383;DHT22;685;47.196;11.880;2022-12-29T07:53:41;0.20;99.90
1383;DHT22;685;47.196;11.880;2022-12-29T07:56:08;0.30;99.90
1383;DHT22;685;47.196;11.880;2022-12-29T07:58:35;0.20;99.90
1383;DHT22;685;47.196;11.880;2022-12-29T08:01:02;0.20;99.90
1383;DHT22;685;47.196;11.880;2022-12-29T08:03:29;0.40;99.90
1383;DHT22;685;47.196;11.880;2022-12-29T08:05:57;0.40;99.90
1383;DHT22;685;47.196;11.880;2022-12-29T08:08:25;0.50;99.90
1383;DHT22;685;47.196;11.880;2022-12-29T08:10:52;0.70;99.90
1383;DHT22;685;47.196;11.880;2022-12-29T08:13:19;0.60;99.90
1383;DHT22;685;47.196;11.880;2022-12-29T08:15:45;0.60;99.90
1383;DHT22;685;47.196;11.880;2022-12-29T08:18:12;0.70;99.90
1383;DHT22;685;47.196;11.880;2022-12-29T08:20:39;0.70;99.90
1383;DHT22;685;47.196;11.880;2022-12-29T08:23:06;0.50;99.90
1383;DHT22;685;47.196;11.880;2022-12-29T08:25:34;0.20;99.90
1383;DHT22;685;47.196;11.880;2022-12-29T08:28:01;0.00;99.90
1383;DHT22;685;47.196;11.880;2022-12-29T08:30:28;0.40;99.90
1383;DHT22;685;47.196;11.880;2022-12-29T08:32:55;0.70;99.90
1383;DHT22;685;47.196;11.880;2022-12-29T08:35:22;0.90;99.90
1383;DHT22;685;47.196;11.880;2022-12-29T08:37:50;0.70;99.90
1383;DHT22;685;47.196;11.880;2022-12-29T08:40:16;0.70;99.90
1383;DHT22;685;47.196;11.880;2022-12-29T08:42:45;0.80;99.90
1383;DHT22;685;47.196;11.880;2022-12-29T08:45:12;0.80;99.90
1383;DHT22;685;47.196;11.880;2022-12-29T08:47:38;1.00;99.90
1383;DHT22;685;47.196;11.880;2022-12-29T08:50:06;1.00;99.90
1383;DHT22;685;47.196;11.880;2022-12-29T08:52:33;1.00;99.90
1383;DHT22;685;47.196;11.880;2022-12-29T08:55:00;1.10;99.90
1383;DHT22;685;47.196;11.880;2022-12-29T08:57:27;1.30;99.90
1383;DHT22;685;47.196;11.880;2022-12-29T08:59:55;1.20;99.90
1383;DHT22;685;47.196;11.880;2022-12-29T09:02:22;0.60;99.90
1383;DHT22;685;47.196;11.880;2022-12-29T09:04:49;0.30;99.90
1383;DHT22;685;47.196;11.880;2022-12-29T09:07:16;0.40;99.90
1383;DHT22;685;47.196;11.880;2022-12-29T09:09:43;0.70;99.90
1383;DHT22;685;47.196;11.880;2022-12-29T09:12:10;0.30;99.90
1383;DHT22;685;47.196;11.880;2022-12-29T09:14:37;0.10;99.90
1383;DHT22;685;47.196;11.880;2022-12-29T09:17:05;0.20;99.90
1383;DHT22;685;47.196;11.880;2022-12-29T09:19:49;0.30;99.90
1383;DHT22;685;47.196;11.880;2022-12-29T09:22:16;0.40;99.90
1383;DHT22;685;47.196;11.880;2022-12-29T09:24:43;0.60;99.90
1383;DHT22;685;47.196;11.880;2022-12-29T09:27:10;0.50;99.90
1383;DHT22;685;47.196;11.880;2022-12-29T09:29:37;0.50;99.90
1383;DHT22;685;47.196;11.880;2022-12-29T09:32:05;0.50;99.90
1383;DHT22;685;47.196;11.880;2022-12-29T09:34:32;0.80;99.90
1383;DHT22;685;47.196;11.880;2022-12-29T09:36:59;1.10;99.90
1383;DHT22;685;47.196;11.880;2022-12-29T09:39:26;1.30;99.90
1383;DHT22;685;47.196;11.880;2022-12-29T09:42:00;1.00;99.90
1383;DHT22;685;47.196;11.880;2022-12-29T09:44:38;0.70;99.90
1383;DHT22;685;47.196;11.880;2022-12-29T09:47:13;0.70;99.90
1383;DHT22;685;47.196;11.880;2022-12-29T09:49:44;0.70;99.90
1383;DHT22;685;47.196;11.880;2022-12-29T09:52:15;0.70;99.90
1383;DHT22;685;47.196;11.880;2022-12-29T09:54:51;0.90;99.90
1383;DHT22;685;47.196;11.880;2022-12-29T09:57:23;1.00;99.90
1383;DHT22;685;47.196;11.880;2022-12-29T09:59:54;1.10;99.90
1383;DHT22;685;47.196;11.880;2022-12-29T10:02:34;1.10;99.90
1383;DHT22;685;47.196;11.880;2022-12-29T10:05:04;1.30;99.90
1383;DHT22;685;47.196;11.880;2022-12-29T10:07:44;1.20;99.90
1383;DHT22;685;47.196;11.880;2022-12-29T10:10:20;1.40;99.90
1383;DHT22;685;47.196;11.880;2022-12-29T10:12:59;1.80;99.90
1383;DHT22;685;47.196;11.880;2022-12-29T10:15:38;1.80;99.90
1383;DHT22;685;47.196;11.880;2022-12-29T10:18:21;1.60;99.90
1383;DHT22;685;47.196;11.880;2022-12-29T10:20:54;1.60;99.90
1383;DHT22;685;47.196;11.880;2022-12-29T10:23:29;1.70;99.90
1383;DHT22;685;47.196;11.880;2022-12-29T10:25:59;2.00;99.90
1383;DHT22;685;47.196;11.880;2022-12-29T10:28:35;2.20;99.90
1383;DHT22;685;47.196;11.880;2022-12-29T10:31:06;2.40;99.90
1383;DHT22;685;47.196;11.880;2022-12-29T10:33:37;2.50;99.90
1383;DHT22;685;47.196;11.880;2022-12-29T10:36:13;2.60;99.90
1383;DHT22;685;47.196;11.880;2022-12-29T10:38:48;2.60;99.90
1383;DHT22;685;47.196;11.880;2022-12-29T10:41:20;2.80;99.90
1383;DHT22;685;47.196;11.880;2022-12-29T10:43:49;3.10;99.90
1383;DHT22;685;47.196;11.880;2022-12-29T10:46:19;3.20;99.90
1383;DHT22;685;47.196;11.880;2022-12-29T10:48:48;3.30;99.90
1383;DHT22;685;47.196;11.880;2022-12-29T10:51:20;3.20;99.90
1383;DHT22;685;47.196;11.880;2022-12-29T10:53:49;3.20;99.90
1383;DHT22;685;47.196;11.880;2022-12-29T10:56:25;3.20;99.90
1383;DHT22;685;47.196;11.880;2022-12-29T10:58:55;3.30;99.90
1383;DHT22;685;47.196;11.880;2022-12-29T11:01:31;3.30;99.90
1383;DHT22;685;47.196;11.880;2022-12-29T11:04:03;3.40;99.90
1383;DHT22;685;47.196;11.880;2022-12-29T11:06:30;3.50;99.90
1383;DHT22;685;47.196;11.880;2022-12-29T11:09:01;3.60;99.90
1383;DHT22;685;47.196;11.880;2022-12-29T11:11:34;3.70;99.90
1383;DHT22;685;47.196;11.880;2022-12-29T11:14:08;3.80;99.90
1383;DHT22;685;47.196;11.880;2022-12-29T11:16:36;3.90;99.90
1383;DHT22;685;47.196;11.880;2022-12-29T11:19:05;4.00;99.90
1383;DHT22;685;47.196;11.880;2022-12-29T11:21:33;4.00;99.90
1383;DHT22;685;47.196;11.880;2022-12-29T11:24:17;4.10;99.90
1383;DHT22;685;47.196;11.880;2022-12-29T11:26:45;4.20;99.90
1383;DHT22;685;47.196;11.880;2022-12-29T11:29:27;4.20;99.90
1383;DHT22;685;47.196;11.880;2022-12-29T11:31:55;4.20;99.90
1383;DHT22;685;47.196;11.880;2022-12-29T11:34:30;4.30;99.90
1383;DHT22;685;47.196;11.880;2022-12-29T11:37:00;4.30;99.90
1383;DHT22;685;47.196;11.880;2022-12-29T11:39:32;4.30;99.90
1383;DHT22;685;47.196;11.880;2022-12-29T11:42:00;4.40;99.90
1383;DHT22;685;47.196;11.880;2022-12-29T11:44:32;4.50;99.90
1383;DHT22;685;47.196;11.880;2022-12-29T11:47:02;4.60;99.90
1383;DHT22;685;47.196;11.880;2022-12-29T11:49:30;4.60;99.90
1383;DHT22;685;47.196;11.880;2022-12-29T11:51:57;4.70;99.90
1383;DHT22;685;47.196;11.880;2022-12-29T11:54:27;4.70;99.90
1383;DHT22;685;47.196;11.880;2022-12-29T11:56:57;4.70;99.90
1383;DHT22;685;47.196;11.880;2022-12-29T11:59:41;4.80;99.90
1383;DHT22;685;47.196;11.880;2022-12-29T12:02:35;4.80;99.90
1383;DHT22;685;47.196;11.880;2022-12-29T12:05:12;4.80;99.90
1383;DHT22;685;47.196;11.880;2022-12-29T12:07:41;4.90;99.90
1383;DHT22;685;47.196;11.880;2022-12-29T12:10:18;5.00;99.90
1383;DHT22;685;47.196;11.880;2022-12-29T12:12:50;5.00;99.90
1383;DHT22;685;47.196;11.880;2022-12-29T12:15:22;5.00;99.90
1383;DHT22;685;47.196;11.880;2022-12-29T12:17:55;5.00;99.90
1383;DHT22;685;47.196;11.880;2022-12-29T12:20:35;5.00;99.90
1383;DHT22;685;47.196;11.880;2022-12-29T12:23:13;5.10;99.90
1383;DHT22;685;47.196;11.880;2022-12-29T12:25:52;5.10;99.90
1383;DHT22;685;47.196;11.880;2022-12-29T12:28:26;5.20;99.90
1383;DHT22;685;47.196;11.880;2022-12-29T12:33:27;5.30;99.90
1383;DHT22;685;47.196;11.880;2022-12-29T12:36:09;5.30;99.90
1383;DHT22;685;47.196;11.880;2022-12-29T12:38:44;5.40;99.90
1383;DHT22;685;47.196;11.880;2022-12-29T12:41:21;5.30;99.90
1383;DHT22;685;47.196;11.880;2022-12-29T12:44:00;5.40;99.90
1383;DHT22;685;47.196;11.880;2022-12-29T12:53:01;5.40;99.90
1383;DHT22;685;47.196;11.880;2022-12-29T12:55:42;5.40;99.90
1383;DHT22;685;47.196;11.880;2022-12-29T12:58:16;5.40;99.90
1383;DHT22;685;47.196;11.880;2022-12-29T13:00:57;5.40;99.90
1383;DHT22;685;47.196;11.880;2022-12-29T13:03:39;5.30;99.90
1383;DHT22;685;47.196;11.880;2022-12-29T13:06:18;5.30;99.90
1383;DHT22;685;47.196;11.880;2022-12-29T13:09:14;5.40;99.90
1383;DHT22;685;47.196;11.880;2022-12-29T13:11:56;5.40;99.90
1383;DHT22;685;47.196;11.880;2022-12-29T13:14:40;5.40;99.90
1383;DHT22;685;47.196;11.880;2022-12-29T13:17:14;5.50;99.90
1383;DHT22;685;47.196;11.880;2022-12-29T13:19:46;5.60;99.90
1383;DHT22;685;47.196;11.880;2022-12-29T13:22:20;5.60;99.90
1383;DHT22;685;47.196;11.880;2022-12-29T13:25:00;5.60;99.90
1383;DHT22;685;47.196;11.880;2022-12-29T13:27:34;5.70;99.90
1383;DHT22;685;47.196;11.880;2022-12-29T13:30:07;5.50;99.90
1383;DHT22;685;47.196;11.880;2022-12-29T13:32:47;5.50;99.90
1383;DHT22;685;47.196;11.880;2022-12-29T13:35:37;5.60;99.90
1383;DHT22;685;47.196;11.880;2022-12-29T13:38:12;5.70;99.90
1383;DHT22;685;47.196;11.880;2022-12-29T13:40:44;5.80;99.90
1383;DHT22;685;47.196;11.880;2022-12-29T13:43:13;5.80;99.90
1383;DHT22;685;47.196;11.880;2022-12-29T13:45:41;5.80;99.90
1383;DHT22;685;47.196;11.880;2022-12-29T13:48:14;5.70;99.90
1383;DHT22;685;47.196;11.880;2022-12-29T13:50:46;5.50;99.90
1383;DHT22;685;47.196;11.880;2022-12-29T13:53:22;5.40;99.90
1383;DHT22;685;47.196;11.880;2022-12-29T13:55:55;5.30;99.90
1383;DHT22;685;47.196;11.880;2022-12-29T13:58:31;5.30;99.90
1383;DHT22;685;47.196;11.880;2022-12-29T14:01:12;5.20;99.90
1383;DHT22;685;47.196;11.880;2022-12-29T14:03:46;5.20;99.90
1383;DHT22;685;47.196;11.880;2022-12-29T14:06:21;5.00;99.90
1383;DHT22;685;47.196;11.880;2022-12-29T14:08:50;4.90;99.90
1383;DHT22;685;47.196;11.880;2022-12-29T14:11:22;4.80;99.90
1383;DHT22;685;47.196;11.880;2022-12-29T14:13:51;4.80;99.90
1383;DHT22;685;47.196;11.880;2022-12-29T14:16:30;4.60;99.90
1383;DHT22;685;47.196;11.880;2022-12-29T14:19:05;4.60;99.90
1383;DHT22;685;47.196;11.880;2022-12-29T14:21:33;4.70;99.90
1383;DHT22;685;47.196;11.880;2022-12-29T14:24:38;4.80;99.90
1383;DHT22;685;47.196;11.880;2022-12-29T14:27:44;4.80;99.90
1383;DHT22;685;47.196;11.880;2022-12-29T14:30:48;4.90;99.90
1383;DHT22;685;47.196;11.880;2022-12-29T14:33:16;4.80;99.90
1383;DHT22;685;47.196;11.880;2022-12-29T14:35:44;4.80;99.90
1383;DHT22;685;47.196;11.880;2022-12-29T14:38:21;4.60;99.90
1383;DHT22;685;47.196;11.880;2022-12-29T14:40:49;4.60;99.90
1383;DHT22;685;47.196;11.880;2022-12-29T14:43:36;4.50;99.90
1383;DHT22;685;47.196;11.880;2022-12-29T14:46:03;4.80;99.90
1383;DHT22;685;47.196;11.880;2022-12-29T14:48:40;5.50;99.90
1383;DHT22;685;47.196;11.880;2022-12-29T14:51:19;5.50;99.90
1383;DHT22;685;47.196;11.880;2022-12-29T14:53:48;5.30;99.90
1383;DHT22;685;47.196;11.880;2022-12-29T14:56:17;4.90;99.90
1383;DHT22;685;47.196;11.880;2022-12-29T14:58:52;4.80;99.90
1383;DHT22;685;47.196;11.880;2022-12-29T15:01:34;5.30;99.90
1383;DHT22;685;47.196;11.880;2022-12-29T15:04:12;5.40;99.90
1383;DHT22;685;47.196;11.880;2022-12-29T15:06:41;5.10;99.90
1383;DHT22;685;47.196;11.880;2022-12-29T15:09:17;5.30;99.90
1383;DHT22;685;47.196;11.880;2022-12-29T15:11:50;5.00;99.90
1383;DHT22;685;47.196;11.880;2022-12-29T15:14:35;5.10;99.90
1383;DHT22;685;47.196;11.880;2022-12-29T15:17:09;5.90;99.90
1383;DHT22;685;47.196;11.880;2022-12-29T15:19:37;6.00;99.90
1383;DHT22;685;47.196;11.880;2022-12-29T15:22:05;6.70;99.90
1383;DHT22;685;47.196;11.880;2022-12-29T15:24:33;7.50;99.90
1383;DHT22;685;47.196;11.880;2022-12-29T15:27:03;8.20;99.90
1383;DHT22;685;47.196;11.880;2022-12-29T15:29:36;8.40;99.90
1383;DHT22;685;47.196;11.880;2022-12-29T15:32:18;8.30;99.90
1383;DHT22;685;47.196;11.880;2022-12-29T15:34:48;8.40;99.90
1383;DHT22;685;47.196;11.880;2022-12-29T15:37:18;8.30;99.90
1383;DHT22;685;47.196;11.880;2022-12-29T15:39:46;8.70;99.90
1383;DHT22;685;47.196;11.880;2022-12-29T15:42:29;8.70;99.90
1383;DHT22;685;47.196;11.880;2022-12-29T15:45:00;7.90;99.90
1383;DHT22;685;47.196;11.880;2022-12-29T15:47:30;7.60;99.90
1383;DHT22;685;47.196;11.880;2022-12-29T15:50:01;6.80;99.90
1383;DHT22;685;47.196;11.880;2022-12-29T15:52:29;6.70;99.90
1383;DHT22;685;47.196;11.880;2022-12-29T15:54:58;6.70;99.90
1383;DHT22;685;47.196;11.880;2022-12-29T15:57:27;6.60;99.90
1383;DHT22;685;47.196;11.880;2022-12-29T15:59:55;6.90;99.90
1383;DHT22;685;47.196;11.880;2022-12-29T16:02:24;7.00;99.90
1383;DHT22;685;47.196;11.880;2022-12-29T16:04:51;6.90;99.90
1383;DHT22;685;47.196;11.880;2022-12-29T16:07:27;6.70;99.90
1383;DHT22;685;47.196;11.880;2022-12-29T16:09:55;6.50;99.90
1383;DHT22;685;47.196;11.880;2022-12-29T16:12:25;6.00;99.90
1383;DHT22;685;47.196;11.880;2022-12-29T16:14:54;5.60;99.90
1383;DHT22;685;47.196;11.880;2022-12-29T16:17:25;5.30;99.90
1383;DHT22;685;47.196;11.880;2022-12-29T16:19:56;5.40;99.90
1383;DHT22;685;47.196;11.880;2022-12-29T16:22:27;5.40;99.90
1383;DHT22;685;47.196;11.880;2022-12-29T16:24:57;5.50;99.90
1383;DHT22;685;47.196;11.880;2022-12-29T16:27:31;5.50;99.90
1383;DHT22;685;47.196;11.880;2022-12-29T16:30:05;4.70;99.90
1383;DHT22;685;47.196;11.880;2022-12-29T16:32:34;4.60;99.90
1383;DHT22;685;47.196;11.880;2022-12-29T16:35:12;4.70;99.90
1383;DHT22;685;47.196;11.880;2022-12-29T16:37:40;4.90;99.90
1383;DHT22;685;47.196;11.880;2022-12-29T16:40:28;4.70;99.90
1383;DHT22;685;47.196;11.880;2022-12-29T16:42:58;5.10;99.90
1383;DHT22;685;47.196;11.880;2022-12-29T16:48:35;4.90;99.90
1383;DHT22;685;47.196;11.880;2022-12-29T16:51:05;4.80;99.90
1383;DHT22;685;47.196;11.880;2022-12-29T16:53:35;4.90;99.90
1383;DHT22;685;47.196;11.880;2022-12-29T16:56:07;5.00;99.90
1383;DHT22;685;47.196;11.880;2022-12-29T16:58:35;5.00;99.90
1383;DHT22;685;47.196;11.880;2022-12-29T17:01:04;4.90;99.90